Bei Facebook empfehlenBei Twitter postenGoogle plusPinterest

Das Wetter im Erzgebirge am 13.06.2016

Wetter und Klima am 13.06.2016 Holzhau im Erzgebirge (630m ü.NN)
Letzte gemessene Temperatur und Uhrzeit der Messung23:45:00 Uhr11.80 °C
Temperatur (Maximum / Höchstwert) und Uhrzeit der Messung15:30:00 Uhr20.90 °C
Temperatur (Minimum / Tiefstwert) und Uhrzeit der Messung02:15:0011.50 °C
Errechneter Absolutwert der Temperaturschwankungen zwischen Tmin und Tmax des Tages9.40 K
Errechnete Tagesmitteltemperatur14.15833 °C
Gesamt - Niederschlag des Tages (in flüssiger Form)10.36 Liter / m²
Luftdruck (Maximum / Höchstwert) und Zeitpunkt der Messung00:15:00 Uhr1003.10 hPa
Luftdruck (Minimum / Tiefstwert) und Zeitpunkt der Messung20:30:00 Uhr998.70 hPa
Errechneter Absolutwert der Luftdruckschwankungen des Tages4.40 hPa
Höchste gemessene Windgeschwindigkeit und Uhrzeit der Messung23:45:00 Uhr0.00 km/h
Errechnete Windhäufigkeit in Relation zu den Messwerten des Tages0.00000 %
Niedrigste Windkühle (Windchill) und Zeitpunkt der Messung02:15:00 Uhr11.50 °C
Taupunkt (Maximum / Höchstwert) und Uhrzeit der Messung13:00:00 Uhr16.10 °C
Taupunkt (Minimum / Tiefstwert) und Uhrzeit der Messung22:30:0010.40 °C
Anzahl der automatisch eingelesenen Messwerte 96

Detaillierte Wetter- und Klima- Messwerte für den 13.06.2016 in Holzhau im Erzgebirge (630m ü.NN)
ZeitTemperaturLuftdruckRel. LuftfeuchteWindWindrichtungWindchillTaupunktNiederschlag l/m²
23:45:0011.80 °C999.20 hPa93.00 %10.70 °C10.36
23:30:0011.80 °C999.20 hPa93.00 %10.70 °C10.36
23:15:0011.80 °C999.20 hPa93.00 %10.70 °C10.36
23:00:0011.80 °C999.20 hPa93.00 %10.70 °C10.36
22:45:0011.80 °C999.40 hPa93.00 %10.70 °C10.36
22:30:0011.70 °C999.20 hPa92.00 %10.40 °C10.36
22:15:0011.80 °C999.20 hPa92.00 %10.50 °C10.36
22:00:0011.90 °C999.30 hPa92.00 %10.60 °C10.36
21:45:0012.40 °C999.10 hPa92.00 %11.10 °C10.36
21:30:0012.80 °C998.90 hPa92.00 %11.50 °C10.36
21:15:0013.10 °C998.90 hPa91.00 %11.70 °C10.36
21:00:0013.50 °C998.80 hPa91.00 %12.10 °C10.36
20:45:0014.00 °C998.80 hPa91.00 %12.60 °C10.36
20:30:0014.40 °C998.70 hPa92.00 %13.10 °C10.36
20:15:0014.50 °C998.80 hPa92.00 %13.20 °C10.36
20:00:0014.60 °C998.70 hPa91.00 %13.10 °C10.36
19:45:0014.60 °C998.80 hPa91.00 %13.10 °C10.36
19:30:0014.80 °C999.10 hPa91.00 %13.30 °C10.36
19:15:0014.80 °C999.10 hPa91.00 %13.30 °C10.36
19:00:0014.40 °C998.80 hPa91.00 %13.00 °C10.36
18:45:0013.90 °C998.90 hPa90.00 %12.30 °C10.36
18:30:0013.80 °C998.90 hPa89.00 %12.00 °C10.36
18:15:0013.30 °C998.90 hPa89.00 %11.50 °C9.84
18:00:0013.10 °C998.90 hPa88.00 %11.20 °C9.84
17:45:0013.10 °C999.10 hPa87.00 %11.00 °C9.33
17:30:0012.90 °C999.00 hPa86.00 %10.60 °C9.33
17:15:0013.30 °C999.20 hPa84.00 %10.70 °C9.33
17:00:0013.90 °C999.30 hPa83.00 %11.10 °C7.77
16:45:0014.90 °C999.40 hPa81.00 %11.70 °C6.74
16:30:0015.40 °C999.00 hPa78.00 %11.60 °C6.74
16:15:0016.80 °C999.00 hPa75.00 %12.30 °C6.22
16:00:0018.10 °C998.90 hPa71.00 %12.80 °C6.22
15:45:0019.30 °C998.90 hPa68.00 %13.20 °C6.22
15:30:0020.90 °C998.80 hPa67.00 %14.50 °C6.22
15:15:0020.90 °C998.90 hPa68.00 %14.80 °C6.22
15:00:0020.90 °C998.90 hPa69.00 %15.00 °C6.22
14:45:0019.90 °C999.10 hPa70.00 %14.30 °C6.22
14:30:0020.40 °C999.20 hPa70.00 %14.70 °C6.22
14:15:0020.60 °C999.50 hPa70.00 %14.90 °C6.22
14:00:0020.80 °C999.60 hPa71.00 %15.40 °C6.22
13:45:0020.30 °C999.60 hPa73.00 %15.30 °C6.22
13:30:0020.10 °C999.90 hPa74.00 %15.30 °C6.22
13:15:0019.80 °C999.90 hPa76.00 %15.40 °C6.22
13:00:0019.60 °C999.90 hPa80.00 %16.10 °C6.22
12:45:0018.30 °C1000.20 hPa83.00 %15.40 °C6.22
12:30:0017.90 °C1000.20 hPa84.00 %15.20 °C6.22
12:15:0018.10 °C1000.30 hPa88.00 %16.10 °C6.22
12:00:0017.10 °C1000.70 hPa89.00 %15.30 °C6.22
11:45:0017.10 °C1000.60 hPa91.00 %15.60 °C6.22
11:30:0016.60 °C1000.80 hPa92.00 %15.30 °C6.22
11:15:0017.10 °C1000.90 hPa94.00 %16.10 °C6.22
11:00:0016.50 °C1000.80 hPa95.00 %15.70 °C6.22
10:45:0016.00 °C1001.00 hPa95.00 %15.20 °C6.22
10:30:0015.60 °C1001.00 hPa95.00 %14.80 °C6.22
10:15:0015.40 °C1001.00 hPa96.00 %14.80 °C5.70
10:00:0014.90 °C1001.10 hPa96.00 %14.30 °C5.70
09:45:0013.60 °C1001.10 hPa96.00 %13.00 °C5.70
09:30:0013.30 °C1001.30 hPa96.00 %12.70 °C5.70
09:15:0012.90 °C1001.00 hPa96.00 %12.30 °C5.70
09:00:0012.50 °C1001.00 hPa95.00 %11.70 °C5.70
08:45:0012.50 °C1001.40 hPa95.00 %11.70 °C5.70
08:30:0012.40 °C1001.40 hPa95.00 %11.60 °C5.70
08:15:0012.20 °C1001.50 hPa95.00 %11.40 °C5.70
08:00:0012.20 °C1001.50 hPa95.00 %11.40 °C5.70
07:45:0012.10 °C1001.40 hPa95.00 %11.30 °C5.70
07:30:0012.10 °C1001.30 hPa95.00 %11.30 °C5.70
07:15:0012.10 °C1001.30 hPa95.00 %11.30 °C5.18
07:00:0012.20 °C1001.20 hPa95.00 %11.40 °C4.15
06:45:0012.20 °C1001.20 hPa95.00 %11.40 °C3.63
06:30:0012.20 °C1001.20 hPa95.00 %11.40 °C3.63
06:15:0012.20 °C1001.40 hPa94.00 %11.30 °C2.07
06:00:0012.20 °C1001.30 hPa94.00 %11.30 °C1.04
05:45:0012.10 °C1001.30 hPa94.00 %11.20 °C1.04
05:30:0012.10 °C1001.30 hPa94.00 %11.20 °C1.04
05:15:0011.90 °C1001.30 hPa94.00 %11.00 °C1.04
05:00:0011.90 °C1001.40 hPa94.00 %11.00 °C1.04
04:45:0011.80 °C1001.40 hPa94.00 %10.90 °C1.04
04:30:0011.80 °C1001.50 hPa94.00 %10.90 °C1.04
04:15:0011.80 °C1001.60 hPa94.00 %10.90 °C1.04
04:00:0011.60 °C1001.60 hPa94.00 %10.70 °C1.04
03:45:0011.60 °C1001.60 hPa94.00 %10.70 °C1.04
03:30:0011.60 °C1001.70 hPa94.00 %10.70 °C1.04
03:15:0011.60 °C1001.80 hPa94.00 %10.70 °C1.04
03:00:0011.60 °C1001.80 hPa94.00 %10.70 °C1.04
02:45:0011.60 °C1001.90 hPa94.00 %10.70 °C1.04
02:30:0011.60 °C1001.90 hPa94.00 %10.70 °C1.04
02:15:0011.50 °C1002.10 hPa94.00 %10.60 °C1.04
02:00:0011.50 °C1002.00 hPa93.00 %10.40 °C1.04
01:45:0011.60 °C1002.40 hPa93.00 %10.50 °C1.04
01:30:0011.60 °C1002.50 hPa93.00 %10.50 °C1.04
01:15:0011.70 °C1002.60 hPa93.00 %10.60 °C0.52
01:00:0011.80 °C1002.80 hPa93.00 %10.70 °C0.52
00:45:0011.80 °C1002.80 hPa93.00 %10.70 °C 
00:30:0011.70 °C1002.90 hPa93.00 %10.60 °C 
00:15:0011.80 °C1003.10 hPa92.00 %10.50 °C 
00:00:0011.80 °C1003.10 hPa92.00 %10.50 °C 

Permanenter Link zu dieser Seite: Wetter im Erzgebirge am 13.06.2016
Performance-Info: Die Erstellung der Seite / Statistik(en) / Tabelle(n) erforderte 5 Datenbankserver-Abfrage(n) und dauerte 118 Millisekunden. (Dieser Messwert ist von der Gesamt-Auslastung des Servers abhängig.)
Erzgebirge - Wetter | Erzgebirge - Wetter (Mobilgeräte) | Komplette Klimadatenbank